sensor_id;sensor_type;location;lat;lon;timestamp;pressure;altitude;pressure_sealevel;temperature;humidity
77975;BME280;67164;51.202;0.278;2023-03-14T00:00:51;98465.53;;;22.93;39.57
77975;BME280;67164;51.202;0.278;2023-03-14T00:03:17;98472.13;;;22.71;39.54
77975;BME280;67164;51.202;0.278;2023-03-14T00:05:43;98472.53;;;23.11;39.61
77975;BME280;67164;51.202;0.278;2023-03-14T00:08:08;98463.70;;;23.07;39.65
77975;BME280;67164;51.202;0.278;2023-03-14T00:10:36;98468.67;;;22.85;39.56
77975;BME280;67164;51.202;0.278;2023-03-14T00:13:00;98469.81;;;23.03;39.58
77975;BME280;67164;51.202;0.278;2023-03-14T00:15:26;98470.71;;;23.01;39.58
77975;BME280;67164;51.202;0.278;2023-03-14T00:17:52;98467.87;;;22.96;39.61
77975;BME280;67164;51.202;0.278;2023-03-14T00:20:17;98466.83;;;22.42;39.63
77975;BME280;67164;51.202;0.278;2023-03-14T00:22:43;98468.28;;;22.86;39.67
77975;BME280;67164;51.202;0.278;2023-03-14T00:25:11;98465.17;;;22.81;39.69
77975;BME280;67164;51.202;0.278;2023-03-14T00:27:35;98464.87;;;22.80;39.66
77975;BME280;67164;51.202;0.278;2023-03-14T00:30:00;98457.64;;;22.75;39.67
77975;BME280;67164;51.202;0.278;2023-03-14T00:32:26;98460.00;;;22.49;39.66
77975;BME280;67164;51.202;0.278;2023-03-14T00:34:52;98456.86;;;22.70;39.64
77975;BME280;67164;51.202;0.278;2023-03-14T00:37:17;98461.73;;;22.67;39.65
77975;BME280;67164;51.202;0.278;2023-03-14T00:39:43;98463.81;;;22.87;39.65
77975;BME280;67164;51.202;0.278;2023-03-14T00:42:09;98461.61;;;22.57;39.70
77975;BME280;67164;51.202;0.278;2023-03-14T00:44:35;98456.05;;;22.55;39.69
77975;BME280;67164;51.202;0.278;2023-03-14T00:47:01;98452.47;;;22.35;39.66
77975;BME280;67164;51.202;0.278;2023-03-14T00:49:27;98457.19;;;22.58;39.65
77975;BME280;67164;51.202;0.278;2023-03-14T00:51:52;98456.80;;;22.79;39.66
77975;BME280;67164;51.202;0.278;2023-03-14T00:54:18;98453.06;;;22.51;39.66
77975;BME280;67164;51.202;0.278;2023-03-14T00:56:44;98465.48;;;22.48;39.66
77975;BME280;67164;51.202;0.278;2023-03-14T00:59:10;98462.08;;;22.44;39.64
77975;BME280;67164;51.202;0.278;2023-03-14T01:01:36;98460.57;;;22.62;39.68
77975;BME280;67164;51.202;0.278;2023-03-14T01:04:01;98454.59;;;22.64;39.64
77975;BME280;67164;51.202;0.278;2023-03-14T01:06:28;98454.65;;;22.37;39.66
77975;BME280;67164;51.202;0.278;2023-03-14T01:08:54;98446.97;;;22.33;39.64
77975;BME280;67164;51.202;0.278;2023-03-14T01:11:21;98454.43;;;22.31;39.66
77975;BME280;67164;51.202;0.278;2023-03-14T01:13:45;98451.64;;;22.23;39.70
77975;BME280;67164;51.202;0.278;2023-03-14T01:16:11;98447.35;;;22.23;39.65
77975;BME280;67164;51.202;0.278;2023-03-14T01:18:38;98450.48;;;22.21;39.66
77975;BME280;67164;51.202;0.278;2023-03-14T01:21:03;98457.38;;;22.17;39.69
77975;BME280;67164;51.202;0.278;2023-03-14T01:23:28;98459.11;;;21.95;39.67
77975;BME280;67164;51.202;0.278;2023-03-14T01:25:54;98457.95;;;22.18;39.66
77975;BME280;67164;51.202;0.278;2023-03-14T01:28:19;98460.73;;;21.99;39.58
77975;BME280;67164;51.202;0.278;2023-03-14T01:30:45;98459.64;;;22.50;39.51
77975;BME280;67164;51.202;0.278;2023-03-14T01:33:13;98461.23;;;22.24;39.53
77975;BME280;67164;51.202;0.278;2023-03-14T01:35:38;98463.33;;;22.46;39.52
77975;BME280;67164;51.202;0.278;2023-03-14T01:38:03;98464.83;;;22.24;39.46
77975;BME280;67164;51.202;0.278;2023-03-14T01:40:29;98463.23;;;22.23;39.47
77975;BME280;67164;51.202;0.278;2023-03-14T01:42:55;98466.07;;;22.40;39.52
77975;BME280;67164;51.202;0.278;2023-03-14T01:47:46;98473.35;;;22.15;39.48
77975;BME280;67164;51.202;0.278;2023-03-14T01:50:12;98470.64;;;22.29;39.55
77975;BME280;67164;51.202;0.278;2023-03-14T01:52:41;98477.57;;;22.24;39.64
77975;BME280;67164;51.202;0.278;2023-03-14T01:55:06;98477.64;;;21.95;39.66
77975;BME280;67164;51.202;0.278;2023-03-14T01:57:32;98487.04;;;22.19;39.68
77975;BME280;67164;51.202;0.278;2023-03-14T02:00:00;98492.67;;;22.20;39.66
77975;BME280;67164;51.202;0.278;2023-03-14T02:02:22;98500.51;;;22.14;39.69
77975;BME280;67164;51.202;0.278;2023-03-14T02:04:47;98562.39;;;21.87;39.74
77975;BME280;67164;51.202;0.278;2023-03-14T02:07:16;98579.78;;;22.08;39.75
77975;BME280;67164;51.202;0.278;2023-03-14T02:09:39;98600.82;;;22.07;39.73
77975;BME280;67164;51.202;0.278;2023-03-14T02:12:05;98598.01;;;22.04;39.75
77975;BME280;67164;51.202;0.278;2023-03-14T02:14:32;98616.80;;;22.01;39.70
77975;BME280;67164;51.202;0.278;2023-03-14T02:16:56;98632.71;;;21.95;39.73
77975;BME280;67164;51.202;0.278;2023-03-14T02:19:28;98638.19;;;21.95;39.71
77975;BME280;67164;51.202;0.278;2023-03-14T02:21:52;98649.49;;;21.95;39.61
77975;BME280;67164;51.202;0.278;2023-03-14T02:24:20;98656.18;;;21.96;39.54
77975;BME280;67164;51.202;0.278;2023-03-14T02:26:42;98673.43;;;21.90;39.61
77975;BME280;67164;51.202;0.278;2023-03-14T02:29:05;98677.70;;;21.87;39.56
77975;BME280;67164;51.202;0.278;2023-03-14T02:31:31;98692.29;;;21.83;39.54
77975;BME280;67164;51.202;0.278;2023-03-14T02:33:57;98697.02;;;21.79;39.58
77975;BME280;67164;51.202;0.278;2023-03-14T02:36:23;98706.69;;;21.77;39.57
77975;BME280;67164;51.202;0.278;2023-03-14T02:38:53;98707.51;;;21.77;39.49
77975;BME280;67164;51.202;0.278;2023-03-14T02:41:15;98719.19;;;21.46;39.51
77975;BME280;67164;51.202;0.278;2023-03-14T02:43:40;98733.11;;;21.72;39.43
77975;BME280;67164;51.202;0.278;2023-03-14T02:46:07;98742.31;;;21.66;39.45
77975;BME280;67164;51.202;0.278;2023-03-14T02:48:34;98756.86;;;21.64;39.44
77975;BME280;67164;51.202;0.278;2023-03-14T02:50:59;98758.42;;;21.65;39.38
77975;BME280;67164;51.202;0.278;2023-03-14T02:53:27;98763.93;;;21.67;39.34
77975;BME280;67164;51.202;0.278;2023-03-14T02:55:49;98770.84;;;21.67;39.31
77975;BME280;67164;51.202;0.278;2023-03-14T02:58:15;98777.91;;;21.60;39.33
77975;BME280;67164;51.202;0.278;2023-03-14T03:00:41;98782.78;;;21.61;39.31
77975;BME280;67164;51.202;0.278;2023-03-14T03:03:07;98787.42;;;21.61;39.27
77975;BME280;67164;51.202;0.278;2023-03-14T03:05:32;98800.36;;;21.37;39.26
77975;BME280;67164;51.202;0.278;2023-03-14T03:07:58;98803.96;;;21.85;39.24
77975;BME280;67164;51.202;0.278;2023-03-14T03:10:24;98812.77;;;21.59;39.20
77975;BME280;67164;51.202;0.278;2023-03-14T03:12:49;98819.19;;;21.76;39.18
77975;BME280;67164;51.202;0.278;2023-03-14T03:15:16;98823.83;;;21.54;39.13
77975;BME280;67164;51.202;0.278;2023-03-14T03:17:41;98826.40;;;21.57;39.06
77975;BME280;67164;51.202;0.278;2023-03-14T03:20:08;98843.12;;;21.54;38.94
77975;BME280;67164;51.202;0.278;2023-03-14T03:22:33;98863.58;;;21.50;38.94
77975;BME280;67164;51.202;0.278;2023-03-14T03:24:59;98867.92;;;21.48;38.95
77975;BME280;67164;51.202;0.278;2023-03-14T03:27:25;98874.40;;;21.65;38.96
77975;BME280;67164;51.202;0.278;2023-03-14T03:29:50;98883.33;;;21.66;38.94
77975;BME280;67164;51.202;0.278;2023-03-14T03:32:16;98887.10;;;21.38;38.87
77975;BME280;67164;51.202;0.278;2023-03-14T03:34:42;98900.57;;;21.32;38.90
77975;BME280;67164;51.202;0.278;2023-03-14T03:37:08;98905.75;;;21.54;38.84
77975;BME280;67164;51.202;0.278;2023-03-14T03:39:34;98907.48;;;21.53;38.84
77975;BME280;67164;51.202;0.278;2023-03-14T03:41:59;98913.79;;;21.46;38.76
77975;BME280;67164;51.202;0.278;2023-03-14T03:44:25;98916.39;;;21.23;38.67
77975;BME280;67164;51.202;0.278;2023-03-14T03:46:51;98921.14;;;21.48;38.72
77975;BME280;67164;51.202;0.278;2023-03-14T03:49:17;98923.99;;;21.23;38.81
77975;BME280;67164;51.202;0.278;2023-03-14T03:51:42;98930.27;;;21.21;38.78
77975;BME280;67164;51.202;0.278;2023-03-14T03:54:08;98941.59;;;21.22;38.81
77975;BME280;67164;51.202;0.278;2023-03-14T03:56:34;98949.80;;;21.46;38.92
77975;BME280;67164;51.202;0.278;2023-03-14T03:59:00;98956.70;;;21.67;38.90
77975;BME280;67164;51.202;0.278;2023-03-14T04:01:26;98958.87;;;21.69;39.06
77975;BME280;67164;51.202;0.278;2023-03-14T04:03:52;98956.81;;;21.47;39.09
77975;BME280;67164;51.202;0.278;2023-03-14T04:06:17;98969.26;;;21.17;39.15
77975;BME280;67164;51.202;0.278;2023-03-14T04:08:43;98979.49;;;21.65;39.04
77975;BME280;67164;51.202;0.278;2023-03-14T04:11:09;98980.36;;;21.43;39.18
77975;BME280;67164;51.202;0.278;2023-03-14T04:13:34;98991.86;;;21.39;39.13
77975;BME280;67164;51.202;0.278;2023-03-14T04:16:00;99000.52;;;21.39;39.34
77975;BME280;67164;51.202;0.278;2023-03-14T04:18:26;99007.60;;;21.36;39.10
77975;BME280;67164;51.202;0.278;2023-03-14T04:20:53;99023.05;;;21.38;39.16
77975;BME280;67164;51.202;0.278;2023-03-14T04:23:18;99027.62;;;21.36;39.11
77975;BME280;67164;51.202;0.278;2023-03-14T04:25:43;99033.65;;;21.59;38.99
77975;BME280;67164;51.202;0.278;2023-03-14T04:28:09;99043.41;;;21.34;39.05
77975;BME280;67164;51.202;0.278;2023-03-14T04:30:35;99054.20;;;21.60;38.95
77975;BME280;67164;51.202;0.278;2023-03-14T04:33:01;99064.05;;;21.53;39.21
77975;BME280;67164;51.202;0.278;2023-03-14T04:35:27;99076.75;;;21.31;39.00
77975;BME280;67164;51.202;0.278;2023-03-14T04:37:52;99076.74;;;21.53;38.84
77975;BME280;67164;51.202;0.278;2023-03-14T04:40:18;99085.16;;;21.02;38.57
77975;BME280;67164;51.202;0.278;2023-03-14T04:42:44;99086.52;;;21.35;38.45
77975;BME280;67164;51.202;0.278;2023-03-14T04:45:10;99094.19;;;21.38;38.62
77975;BME280;67164;51.202;0.278;2023-03-14T04:47:37;99110.86;;;21.10;38.32
77975;BME280;67164;51.202;0.278;2023-03-14T04:50:02;99114.08;;;21.32;38.03
77975;BME280;67164;51.202;0.278;2023-03-14T04:52:27;99117.22;;;21.27;38.39
77975;BME280;67164;51.202;0.278;2023-03-14T04:54:53;99129.54;;;21.43;38.26
77975;BME280;67164;51.202;0.278;2023-03-14T04:57:19;99132.29;;;21.02;38.23
77975;BME280;67164;51.202;0.278;2023-03-14T04:59:45;99135.95;;;21.41;38.27
77975;BME280;67164;51.202;0.278;2023-03-14T05:02:10;99144.27;;;21.33;38.33
77975;BME280;67164;51.202;0.278;2023-03-14T05:04:37;99148.89;;;21.48;38.23
77975;BME280;67164;51.202;0.278;2023-03-14T05:07:02;99148.32;;;21.22;38.08
77975;BME280;67164;51.202;0.278;2023-03-14T05:09:28;99156.28;;;21.17;38.14
77975;BME280;67164;51.202;0.278;2023-03-14T05:11:54;99166.00;;;21.33;38.24
77975;BME280;67164;51.202;0.278;2023-03-14T05:14:19;99172.09;;;21.06;38.43
77975;BME280;67164;51.202;0.278;2023-03-14T05:16:45;99181.13;;;21.07;38.22
77975;BME280;67164;51.202;0.278;2023-03-14T05:19:11;99181.40;;;21.04;38.33
77975;BME280;67164;51.202;0.278;2023-03-14T05:21:37;99186.44;;;21.22;38.36
77975;BME280;67164;51.202;0.278;2023-03-14T05:24:03;99194.05;;;21.45;38.32
77975;BME280;67164;51.202;0.278;2023-03-14T05:26:29;99190.09;;;20.92;38.51
77975;BME280;67164;51.202;0.278;2023-03-14T05:28:54;99184.52;;;20.91;38.23
77975;BME280;67164;51.202;0.278;2023-03-14T05:31:20;99194.35;;;20.89;38.11
77975;BME280;67164;51.202;0.278;2023-03-14T05:33:46;99197.79;;;21.10;38.02
77975;BME280;67164;51.202;0.278;2023-03-14T05:36:12;99196.90;;;21.12;38.11
77975;BME280;67164;51.202;0.278;2023-03-14T05:38:37;99200.29;;;20.83;38.07
77975;BME280;67164;51.202;0.278;2023-03-14T05:41:04;99202.70;;;21.09;38.02
77975;BME280;67164;51.202;0.278;2023-03-14T05:43:29;99206.29;;;21.02;38.19
77975;BME280;67164;51.202;0.278;2023-03-14T05:45:56;99212.38;;;20.75;38.27
77975;BME280;67164;51.202;0.278;2023-03-14T05:48:21;99215.34;;;20.75;38.07
77975;BME280;67164;51.202;0.278;2023-03-14T05:50:47;99222.58;;;20.75;37.91
77975;BME280;67164;51.202;0.278;2023-03-14T05:53:13;99223.66;;;20.72;37.98
77975;BME280;67164;51.202;0.278;2023-03-14T05:55:38;99236.73;;;20.92;37.95
77975;BME280;67164;51.202;0.278;2023-03-14T05:58:04;99242.80;;;20.74;37.97
77975;BME280;67164;51.202;0.278;2023-03-14T06:00:30;99248.29;;;20.71;37.86
77975;BME280;67164;51.202;0.278;2023-03-14T06:02:56;99265.11;;;20.87;38.02
77975;BME280;67164;51.202;0.278;2023-03-14T06:05:21;99272.93;;;20.62;37.81
77975;BME280;67164;51.202;0.278;2023-03-14T06:07:47;99282.03;;;20.60;38.00
77975;BME280;67164;51.202;0.278;2023-03-14T06:10:13;99284.33;;;20.58;37.84
77975;BME280;67164;51.202;0.278;2023-03-14T06:12:39;99296.47;;;20.71;37.98
77975;BME280;67164;51.202;0.278;2023-03-14T06:15:06;99303.69;;;20.29;37.90
77975;BME280;67164;51.202;0.278;2023-03-14T06:17:31;99307.04;;;20.59;37.70
77975;BME280;67164;51.202;0.278;2023-03-14T06:19:56;99313.37;;;20.83;37.58
77975;BME280;67164;51.202;0.278;2023-03-14T06:22:22;99326.44;;;20.62;37.79
77975;BME280;67164;51.202;0.278;2023-03-14T06:24:48;99328.64;;;20.63;37.57
77975;BME280;67164;51.202;0.278;2023-03-14T06:27:14;99334.34;;;20.49;37.64
77975;BME280;67164;51.202;0.278;2023-03-14T06:29:41;99340.87;;;20.90;37.74
77975;BME280;67164;51.202;0.278;2023-03-14T06:32:06;99348.83;;;20.31;37.92
77975;BME280;67164;51.202;0.278;2023-03-14T06:34:32;99355.02;;;20.53;37.86
77975;BME280;67164;51.202;0.278;2023-03-14T06:36:57;99361.02;;;20.58;37.93
77975;BME280;67164;51.202;0.278;2023-03-14T06:39:23;99371.26;;;20.29;37.84
77975;BME280;67164;51.202;0.278;2023-03-14T06:41:49;99375.60;;;20.30;37.78
77975;BME280;67164;51.202;0.278;2023-03-14T06:44:15;99381.73;;;20.28;37.93
77975;BME280;67164;51.202;0.278;2023-03-14T06:46:41;99395.90;;;20.43;37.96
77975;BME280;67164;51.202;0.278;2023-03-14T06:49:07;99395.24;;;20.47;37.80
77975;BME280;67164;51.202;0.278;2023-03-14T06:51:32;99398.98;;;20.52;37.50
77975;BME280;67164;51.202;0.278;2023-03-14T06:53:58;99400.59;;;20.30;37.55
77975;BME280;67164;51.202;0.278;2023-03-14T06:56:24;99401.80;;;20.56;37.59
77975;BME280;67164;51.202;0.278;2023-03-14T06:58:50;99418.05;;;20.54;37.64
77975;BME280;67164;51.202;0.278;2023-03-14T07:01:21;99421.90;;;20.27;37.48
77975;BME280;67164;51.202;0.278;2023-03-14T07:03:41;99422.46;;;20.54;37.55
77975;BME280;67164;51.202;0.278;2023-03-14T07:06:07;99431.01;;;20.25;37.60
77975;BME280;67164;51.202;0.278;2023-03-14T07:08:33;99431.23;;;20.20;37.82
77975;BME280;67164;51.202;0.278;2023-03-14T07:11:00;99448.74;;;20.13;37.49
77975;BME280;67164;51.202;0.278;2023-03-14T07:13:25;99450.26;;;20.17;37.45
77975;BME280;67164;51.202;0.278;2023-03-14T07:15:50;99460.40;;;20.15;37.65
77975;BME280;67164;51.202;0.278;2023-03-14T07:18:16;99470.53;;;20.23;37.33
77975;BME280;67164;51.202;0.278;2023-03-14T07:20:45;99476.69;;;20.39;37.43
77975;BME280;67164;51.202;0.278;2023-03-14T07:23:08;99487.00;;;20.40;37.62
77975;BME280;67164;51.202;0.278;2023-03-14T07:25:34;99498.51;;;20.32;37.46
77975;BME280;67164;51.202;0.278;2023-03-14T07:28:00;99510.86;;;20.53;37.53
77975;BME280;67164;51.202;0.278;2023-03-14T07:30:25;99518.32;;;20.52;37.21
77975;BME280;67164;51.202;0.278;2023-03-14T07:32:51;99529.50;;;20.37;37.54
77975;BME280;67164;51.202;0.278;2023-03-14T07:35:18;99541.00;;;19.95;37.65
77975;BME280;67164;51.202;0.278;2023-03-14T07:37:43;99541.09;;;20.35;37.77
77975;BME280;67164;51.202;0.278;2023-03-14T07:40:10;99549.16;;;20.27;37.83
77975;BME280;67164;51.202;0.278;2023-03-14T07:42:35;99552.89;;;20.21;37.93
77975;BME280;67164;51.202;0.278;2023-03-14T07:45:01;99554.59;;;20.09;38.04
77975;BME280;67164;51.202;0.278;2023-03-14T07:47:26;99561.68;;;19.89;37.66
77975;BME280;67164;51.202;0.278;2023-03-14T07:49:52;99567.19;;;20.18;38.05
77975;BME280;67164;51.202;0.278;2023-03-14T07:52:18;99573.49;;;19.93;37.94
77975;BME280;67164;51.202;0.278;2023-03-14T07:54:44;99581.40;;;19.95;37.98
77975;BME280;67164;51.202;0.278;2023-03-14T07:57:10;99591.82;;;19.88;38.27
77975;BME280;67164;51.202;0.278;2023-03-14T07:59:36;99596.04;;;20.15;37.70
77975;BME280;67164;51.202;0.278;2023-03-14T08:02:01;99603.07;;;20.01;37.55
77975;BME280;67164;51.202;0.278;2023-03-14T08:04:27;99613.34;;;20.37;37.74
77975;BME280;67164;51.202;0.278;2023-03-14T08:06:53;99617.96;;;20.17;37.90
77975;BME280;67164;51.202;0.278;2023-03-14T08:09:19;99622.90;;;20.13;37.95
77975;BME280;67164;51.202;0.278;2023-03-14T08:11:44;99637.71;;;20.40;38.10
77975;BME280;67164;51.202;0.278;2023-03-14T08:14:10;99638.03;;;20.46;38.36
77975;BME280;67164;51.202;0.278;2023-03-14T08:16:36;99647.60;;;20.27;38.55
77975;BME280;67164;51.202;0.278;2023-03-14T08:19:02;99657.00;;;19.80;38.95
77975;BME280;67164;51.202;0.278;2023-03-14T08:21:28;99666.63;;;20.02;38.94
77975;BME280;67164;51.202;0.278;2023-03-14T08:23:53;99681.06;;;20.04;39.28
77975;BME280;67164;51.202;0.278;2023-03-14T08:26:19;99685.26;;;19.45;39.96
77975;BME280;67164;51.202;0.278;2023-03-14T08:28:45;99699.27;;;19.45;39.84
77975;BME280;67164;51.202;0.278;2023-03-14T08:31:11;99710.46;;;19.40;40.12
77975;BME280;67164;51.202;0.278;2023-03-14T08:33:37;99721.58;;;19.78;39.62
77975;BME280;67164;51.202;0.278;2023-03-14T08:36:03;99733.92;;;19.68;39.79
77975;BME280;67164;51.202;0.278;2023-03-14T08:38:28;99742.40;;;19.82;39.60
77975;BME280;67164;51.202;0.278;2023-03-14T08:40:57;99750.36;;;19.58;39.67
77975;BME280;67164;51.202;0.278;2023-03-14T08:43:20;99762.97;;;19.42;39.84
77975;BME280;67164;51.202;0.278;2023-03-14T08:45:46;99771.64;;;19.62;39.66
77975;BME280;67164;51.202;0.278;2023-03-14T08:48:12;99784.75;;;19.90;39.66
77975;BME280;67164;51.202;0.278;2023-03-14T08:50:38;99787.47;;;20.05;39.49
77975;BME280;67164;51.202;0.278;2023-03-14T08:53:03;99802.04;;;20.16;39.41
77975;BME280;67164;51.202;0.278;2023-03-14T08:55:29;99810.23;;;20.13;39.12
77975;BME280;67164;51.202;0.278;2023-03-14T08:57:55;99819.08;;;19.96;39.35
77975;BME280;67164;51.202;0.278;2023-03-14T09:00:21;99829.32;;;19.77;39.35
77975;BME280;67164;51.202;0.278;2023-03-14T09:02:47;99839.00;;;20.25;39.39
77975;BME280;67164;51.202;0.278;2023-03-14T09:05:14;99846.38;;;20.35;39.23
77975;BME280;67164;51.202;0.278;2023-03-14T09:07:39;99848.76;;;20.27;39.07
77975;BME280;67164;51.202;0.278;2023-03-14T09:10:05;99859.66;;;19.95;39.52
77975;BME280;67164;51.202;0.278;2023-03-14T09:12:30;99864.51;;;20.27;39.24
77975;BME280;67164;51.202;0.278;2023-03-14T09:14:56;99881.11;;;19.80;39.80
77975;BME280;67164;51.202;0.278;2023-03-14T09:17:22;99892.33;;;19.92;39.86
77975;BME280;67164;51.202;0.278;2023-03-14T09:19:47;99910.45;;;20.11;40.39
77975;BME280;67164;51.202;0.278;2023-03-14T09:22:13;99922.19;;;19.81;40.73
77975;BME280;67164;51.202;0.278;2023-03-14T09:24:40;99932.70;;;19.58;41.27
77975;BME280;67164;51.202;0.278;2023-03-14T09:27:06;99938.39;;;19.90;40.80
77975;BME280;67164;51.202;0.278;2023-03-14T09:29:33;99946.01;;;19.36;41.33
77975;BME280;67164;51.202;0.278;2023-03-14T09:34:23;99958.11;;;20.12;39.86
77975;BME280;67164;51.202;0.278;2023-03-14T09:36:48;99964.16;;;19.92;39.71
77975;BME280;67164;51.202;0.278;2023-03-14T09:39:15;99973.78;;;20.14;39.78
77975;BME280;67164;51.202;0.278;2023-03-14T09:41:42;99976.19;;;20.34;39.87
77975;BME280;67164;51.202;0.278;2023-03-14T09:44:10;99992.72;;;20.40;39.72
77975;BME280;67164;51.202;0.278;2023-03-14T09:46:33;99999.28;;;20.31;39.82
77975;BME280;67164;51.202;0.278;2023-03-14T09:48:57;100005.63;;;20.40;39.92
77975;BME280;67164;51.202;0.278;2023-03-14T09:51:24;100014.47;;;20.34;39.91
77975;BME280;67164;51.202;0.278;2023-03-14T09:53:50;100026.77;;;20.20;40.13
77975;BME280;67164;51.202;0.278;2023-03-14T09:56:18;100038.20;;;19.93;40.27
77975;BME280;67164;51.202;0.278;2023-03-14T09:58:41;100051.42;;;19.99;40.16
77975;BME280;67164;51.202;0.278;2023-03-14T10:01:11;100062.09;;;20.12;40.29
77975;BME280;67164;51.202;0.278;2023-03-14T10:03:34;100074.18;;;20.33;40.01
77975;BME280;67164;51.202;0.278;2023-03-14T10:05:58;100075.24;;;20.23;40.15
77975;BME280;67164;51.202;0.278;2023-03-14T10:08:24;100084.16;;;20.18;39.84
77975;BME280;67164;51.202;0.278;2023-03-14T10:10:50;100093.75;;;20.18;40.15
77975;BME280;67164;51.202;0.278;2023-03-14T10:13:17;100101.30;;;20.23;39.75
77975;BME280;67164;51.202;0.278;2023-03-14T10:15:41;100108.35;;;20.09;39.97
77975;BME280;67164;51.202;0.278;2023-03-14T10:18:11;100116.94;;;20.30;39.96
77975;BME280;67164;51.202;0.278;2023-03-14T10:20:34;100129.84;;;19.83;40.22
77975;BME280;67164;51.202;0.278;2023-03-14T10:22:59;100141.06;;;20.11;40.28
77975;BME280;67164;51.202;0.278;2023-03-14T10:25:27;100157.48;;;19.81;40.41
77975;BME280;67164;51.202;0.278;2023-03-14T10:27:50;100175.68;;;20.30;40.49
77975;BME280;67164;51.202;0.278;2023-03-14T10:32:46;100191.08;;;20.43;40.47
77975;BME280;67164;51.202;0.278;2023-03-14T10:35:22;100196.52;;;20.30;40.28
77975;BME280;67164;51.202;0.278;2023-03-14T10:37:34;100202.70;;;19.94;40.41
77975;BME280;67164;51.202;0.278;2023-03-14T10:40:00;100205.06;;;20.64;39.96
77975;BME280;67164;51.202;0.278;2023-03-14T10:42:27;100211.81;;;20.38;40.02
77975;BME280;67164;51.202;0.278;2023-03-14T10:44:56;100214.96;;;20.29;39.77
77975;BME280;67164;51.202;0.278;2023-03-14T10:47:19;100224.45;;;20.17;39.87
77975;BME280;67164;51.202;0.278;2023-03-14T10:49:42;100231.15;;;20.26;39.75
77975;BME280;67164;51.202;0.278;2023-03-14T10:52:15;100240.05;;;20.59;39.64
77975;BME280;67164;51.202;0.278;2023-03-14T10:54:34;100240.98;;;20.27;39.69
77975;BME280;67164;51.202;0.278;2023-03-14T10:57:00;100249.10;;;20.72;39.48
77975;BME280;67164;51.202;0.278;2023-03-14T10:59:29;100253.82;;;20.36;39.68
77975;BME280;67164;51.202;0.278;2023-03-14T11:01:57;100266.16;;;20.20;39.91
77975;BME280;67164;51.202;0.278;2023-03-14T11:04:27;100273.56;;;20.10;40.07
77975;BME280;67164;51.202;0.278;2023-03-14T11:06:47;100272.36;;;20.15;40.03
77975;BME280;67164;51.202;0.278;2023-03-14T11:09:15;100274.90;;;20.12;39.71
77975;BME280;67164;51.202;0.278;2023-03-14T11:11:36;100279.90;;;20.20;39.49
77975;BME280;67164;51.202;0.278;2023-03-14T11:14:08;100282.57;;;20.17;39.58
77975;BME280;67164;51.202;0.278;2023-03-14T11:16:32;100288.47;;;20.22;39.64
77975;BME280;67164;51.202;0.278;2023-03-14T11:19:02;100293.89;;;20.12;39.95
77975;BME280;67164;51.202;0.278;2023-03-14T11:21:23;100300.04;;;20.18;40.09
77975;BME280;67164;51.202;0.278;2023-03-14T11:23:50;100307.56;;;20.14;40.07
77975;BME280;67164;51.202;0.278;2023-03-14T11:26:20;100310.42;;;20.30;40.48
77975;BME280;67164;51.202;0.278;2023-03-14T11:28:37;100315.73;;;20.55;40.28
77975;BME280;67164;51.202;0.278;2023-03-14T11:31:07;100316.21;;;20.58;40.32
77975;BME280;67164;51.202;0.278;2023-03-14T11:33:31;100310.71;;;20.76;40.19
77975;BME280;67164;51.202;0.278;2023-03-14T11:35:58;100315.08;;;20.54;40.74
77975;BME280;67164;51.202;0.278;2023-03-14T11:38:28;100327.61;;;20.58;41.00
77975;BME280;67164;51.202;0.278;2023-03-14T11:40:45;100332.72;;;20.33;41.04
77975;BME280;67164;51.202;0.278;2023-03-14T11:43:13;100334.39;;;20.51;41.37
77975;BME280;67164;51.202;0.278;2023-03-14T11:45:38;100343.14;;;20.82;40.65
77975;BME280;67164;51.202;0.278;2023-03-14T11:48:17;100346.88;;;20.63;41.34
77975;BME280;67164;51.202;0.278;2023-03-14T11:50:30;100352.14;;;20.29;41.68
77975;BME280;67164;51.202;0.278;2023-03-14T11:52:55;100353.43;;;20.58;41.68
77975;BME280;67164;51.202;0.278;2023-03-14T11:55:22;100355.42;;;20.59;41.73
77975;BME280;67164;51.202;0.278;2023-03-14T11:57:46;100360.32;;;20.59;41.79
77975;BME280;67164;51.202;0.278;2023-03-14T12:00:17;100365.30;;;20.26;42.00
77975;BME280;67164;51.202;0.278;2023-03-14T12:02:43;100369.17;;;20.65;41.47
77975;BME280;67164;51.202;0.278;2023-03-14T12:07:32;100378.55;;;20.52;41.80
77975;BME280;67164;51.202;0.278;2023-03-14T12:09:54;100377.48;;;20.25;41.83
77975;BME280;67164;51.202;0.278;2023-03-14T12:12:22;100380.77;;;20.55;41.43
77975;BME280;67164;51.202;0.278;2023-03-14T12:14:51;100381.73;;;20.49;41.07
77975;BME280;67164;51.202;0.278;2023-03-14T12:17:18;100379.08;;;20.72;41.39
77975;BME280;67164;51.202;0.278;2023-03-14T12:19:38;100384.97;;;20.69;41.42
77975;BME280;67164;51.202;0.278;2023-03-14T12:22:23;100387.19;;;20.44;41.36
77975;BME280;67164;51.202;0.278;2023-03-14T12:24:31;100392.63;;;20.56;41.48
77975;BME280;67164;51.202;0.278;2023-03-14T12:26:55;100401.96;;;20.93;40.91
77975;BME280;67164;51.202;0.278;2023-03-14T12:29:20;100403.92;;;20.71;40.88
77975;BME280;67164;51.202;0.278;2023-03-14T12:31:47;100406.57;;;20.73;40.97
77975;BME280;67164;51.202;0.278;2023-03-14T12:34:26;100409.01;;;20.56;41.15
77975;BME280;67164;51.202;0.278;2023-03-14T12:36:54;100418.83;;;20.46;41.26
77975;BME280;67164;51.202;0.278;2023-03-14T12:39:13;100419.98;;;20.33;41.45
77975;BME280;67164;51.202;0.278;2023-03-14T12:41:36;100420.60;;;20.29;41.26
77975;BME280;67164;51.202;0.278;2023-03-14T12:43:55;100421.86;;;20.53;41.20
77975;BME280;67164;51.202;0.278;2023-03-14T12:46:24;100427.68;;;20.57;41.13
77975;BME280;67164;51.202;0.278;2023-03-14T12:48:48;100436.42;;;20.41;41.42
77975;BME280;67164;51.202;0.278;2023-03-14T12:51:14;100441.85;;;20.47;41.31
77975;BME280;67164;51.202;0.278;2023-03-14T12:53:57;100449.32;;;20.42;41.43
77975;BME280;67164;51.202;0.278;2023-03-14T12:56:17;100450.39;;;20.50;41.37
77975;BME280;67164;51.202;0.278;2023-03-14T12:58:35;100451.89;;;20.06;41.55